Time;durP1;ratioP1;P1;durP2;ratioP2;P2;SDS_P1;SDS_P2;PMS_P1;PMS_P2;Temp;Humidity;BMP_temperature;BMP_pressure;BME280_temperature;BME280_humidity;BME280_pressure;Samples;Min_cycle;Max_cycle;Signal;HPM_P1;HPM_P2
2023/07/01 00:02:09;;;;;;;6.17;3.73;;;18.60;71.60;;;;;;5074062;28;21059;-79
2023/07/01 00:04:38;;;;;;;7.30;4.00;;;18.60;71.60;;;;;;5063259;28;20498;-80
2023/07/01 00:07:06;;;;;;;6.57;3.80;;;18.60;71.60;;;;;;5072724;28;20461;-79
2023/07/01 00:09:34;;;;;;;6.67;3.73;;;18.60;71.60;;;;;;5086837;28;21600;-79
2023/07/01 00:12:18;;;;;;;6.80;4.27;;;18.60;71.60;;;;;;5084273;28;20454;-81
2023/07/01 00:14:47;;;;;;;6.20;3.90;;;18.60;71.50;;;;;;5068079;28;20446;-79
2023/07/01 00:17:17;;;;;;;8.50;4.07;;;18.50;71.50;;;;;;5079135;28;20451;-80
2023/07/01 00:19:45;;;;;;;7.33;4.30;;;18.50;71.50;;;;;;5081617;28;20452;-82
2023/07/01 00:22:13;;;;;;;6.93;4.07;;;18.50;71.50;;;;;;5074629;28;20448;-79
2023/07/01 00:24:41;;;;;;;10.90;3.67;;;18.50;71.50;;;;;;5078973;28;20482;-79
2023/07/01 00:27:09;;;;;;;7.30;4.60;;;18.50;71.60;;;;;;5084943;28;20456;-78
2023/07/01 00:29:39;;;;;;;7.90;4.87;;;18.50;71.60;;;;;;5085412;28;20579;-80
2023/07/01 00:32:08;;;;;;;6.47;3.80;;;18.50;71.60;;;;;;5077227;28;20502;-79
2023/07/01 00:34:36;;;;;;;8.10;4.87;;;18.50;71.50;;;;;;5084981;28;20458;-80
2023/07/01 00:37:05;;;;;;;7.67;4.80;;;18.50;71.40;;;;;;5085252;28;21244;-79
2023/07/01 00:39:32;;;;;;;6.40;3.87;;;18.50;71.40;;;;;;5057803;28;20454;-79
2023/07/01 00:42:00;;;;;;;9.03;4.50;;;18.40;71.20;;;;;;5079577;28;20466;-81
2023/07/01 00:44:28;;;;;;;6.73;4.57;;;18.30;71.20;;;;;;5085689;28;20440;-81
2023/07/01 00:46:57;;;;;;;7.67;4.53;;;18.30;71.20;;;;;;5077762;28;20477;-80
2023/07/01 00:49:29;;;;;;;7.87;4.97;;;18.10;71.10;;;;;;5065436;28;20450;-81
2023/07/01 00:51:58;;;;;;;6.83;4.23;;;18.00;71.10;;;;;;5081186;28;20448;-78
2023/07/01 00:54:27;;;;;;;7.50;4.77;;;17.80;71.30;;;;;;5065780;28;20457;-79
2023/07/01 00:56:55;;;;;;;6.70;4.63;;;17.70;71.60;;;;;;5068384;28;20454;-80
2023/07/01 00:59:25;;;;;;;9.30;4.47;;;17.70;71.80;;;;;;5061113;28;20455;-81
2023/07/01 01:01:56;;;;;;;7.10;4.70;;;17.80;72.00;;;;;;5082556;28;20464;-78
2023/07/01 01:04:31;;;;;;;9.67;5.00;;;17.80;72.00;;;;;;5068393;28;20468;-81
2023/07/01 01:07:13;;;;;;;7.07;4.10;;;17.90;72.00;;;;;;5069479;28;20433;-79
2023/07/01 01:09:46;;;;;;;8.97;4.60;;;17.90;72.00;;;;;;5089003;28;20452;-80
2023/07/01 01:12:15;;;;;;;6.90;4.30;;;17.90;71.80;;;;;;5086635;28;20897;-79
2023/07/01 01:14:44;;;;;;;7.33;4.13;;;17.90;71.70;;;;;;5071462;28;20485;-81
2023/07/01 01:17:14;;;;;;;7.90;4.97;;;17.90;71.70;;;;;;5070347;28;20464;-80
2023/07/01 01:19:47;;;;;;;7.80;5.20;;;17.90;71.60;;;;;;5070337;28;20544;-79
2023/07/01 01:22:20;;;;;;;7.43;4.40;;;17.90;71.60;;;;;;5069010;28;20468;-79
2023/07/01 01:24:52;;;;;;;13.83;4.97;;;17.90;71.50;;;;;;5088372;28;20456;-79
2023/07/01 01:27:25;;;;;;;7.40;4.60;;;17.90;71.50;;;;;;5067191;28;20453;-80
2023/07/01 01:29:55;;;;;;;7.33;4.20;;;17.80;71.50;;;;;;5065398;28;20512;-79
2023/07/01 01:32:23;;;;;;;8.70;4.53;;;17.80;71.50;;;;;;5085374;28;20584;-79
2023/07/01 01:34:51;;;;;;;7.80;4.90;;;17.80;71.40;;;;;;5085548;28;20452;-79
2023/07/01 01:37:25;;;;;;;7.30;4.10;;;17.80;71.40;;;;;;5069052;28;20482;-81
2023/07/01 01:40:01;;;;;;;7.90;4.23;;;17.80;71.40;;;;;;5072643;28;20839;-80
2023/07/01 01:42:34;;;;;;;7.43;4.67;;;17.80;71.30;;;;;;5066810;28;20457;-79
2023/07/01 01:45:06;;;;;;;7.67;4.53;;;17.80;71.20;;;;;;5069058;28;20506;-79
2023/07/01 01:47:35;;;;;;;7.03;4.63;;;17.70;71.30;;;;;;5080187;28;20458;-78
2023/07/01 01:50:08;;;;;;;8.37;4.83;;;17.70;71.40;;;;;;5076800;28;20470;-79
2023/07/01 01:52:37;;;;;;;9.63;4.90;;;17.70;71.40;;;;;;5082383;28;20856;-81
2023/07/01 01:55:10;;;;;;;7.27;4.37;;;17.70;71.40;;;;;;5072078;28;20452;-80
2023/07/01 01:57:38;;;;;;;7.60;4.50;;;17.70;71.30;;;;;;5087399;28;20447;-80
2023/07/01 02:00:09;;;;;;;10.13;5.43;;;17.70;71.20;;;;;;5069991;28;20477;-79
2023/07/01 02:02:43;;;;;;;8.87;5.50;;;17.70;71.20;;;;;;5072475;28;20453;-78
2023/07/01 02:05:11;;;;;;;8.87;5.57;;;17.70;71.10;;;;;;5076613;28;20464;-80
2023/07/01 02:07:40;;;;;;;8.23;5.10;;;17.60;71.10;;;;;;5072951;28;20829;-81
2023/07/01 02:10:08;;;;;;;9.40;5.60;;;17.60;71.10;;;;;;5074616;28;20497;-79
2023/07/01 02:12:37;;;;;;;9.47;5.40;;;17.50;71.00;;;;;;5065979;28;20453;-80
2023/07/01 02:15:05;;;;;;;8.07;5.33;;;17.40;71.10;;;;;;5083945;28;20468;-79
2023/07/01 02:17:35;;;;;;;10.13;5.90;;;17.40;71.10;;;;;;5086103;28;20452;-80
2023/07/01 02:20:03;;;;;;;8.70;4.73;;;17.30;71.00;;;;;;5062866;28;20966;-80
2023/07/01 02:22:32;;;;;;;8.97;5.63;;;17.20;71.10;;;;;;5068858;28;20472;-78
2023/07/01 02:25:00;;;;;;;9.77;6.27;;;17.20;71.30;;;;;;5065322;28;20454;-81
2023/07/01 02:27:30;;;;;;;8.47;5.40;;;17.20;71.50;;;;;;5085406;28;20481;-81
2023/07/01 02:29:59;;;;;;;8.77;4.90;;;17.30;71.50;;;;;;5082760;28;20456;-80
2023/07/01 02:32:27;;;;;;;14.03;5.23;;;17.30;71.50;;;;;;5086034;28;20914;-80
2023/07/01 02:34:56;;;;;;;10.07;5.27;;;17.30;71.60;;;;;;5072239;28;20963;-82
2023/07/01 02:37:24;;;;;;;12.00;5.33;;;17.30;71.60;;;;;;5065789;28;20459;-81
2023/07/01 02:39:52;;;;;;;7.73;4.90;;;17.30;71.60;;;;;;5083859;28;20443;-80
2023/07/01 02:42:22;;;;;;;11.63;5.77;;;17.30;71.50;;;;;;5087586;28;20484;-81
2023/07/01 02:44:50;;;;;;;6.80;4.80;;;17.20;71.80;;;;;;5069909;28;20457;-80
2023/07/01 02:47:19;;;;;;;7.23;4.60;;;17.20;71.90;;;;;;5067323;28;21006;-82
2023/07/01 02:49:48;;;;;;;8.87;5.43;;;17.20;71.90;;;;;;5088031;28;20449;-80
2023/07/01 02:52:18;;;;;;;8.23;5.07;;;17.30;72.00;;;;;;5078656;28;20533;-80
2023/07/01 02:54:46;;;;;;;12.10;4.97;;;17.30;72.00;;;;;;5088131;28;20468;-83
2023/07/01 02:57:14;;;;;;;18.07;5.03;;;17.30;71.90;;;;;;5072008;28;20553;-81
2023/07/01 02:59:42;;;;;;;12.20;5.00;;;17.30;71.60;;;;;;5084932;28;20447;-81
2023/07/01 03:02:10;;;;;;;7.63;5.00;;;17.20;71.50;;;;;;5063699;28;20469;-80
2023/07/01 03:04:38;;;;;;;11.63;5.20;;;17.20;71.40;;;;;;5079794;28;21250;-82
2023/07/01 03:07:06;;;;;;;8.90;5.40;;;17.10;71.60;;;;;;5075079;28;20483;-81
2023/07/01 03:09:51;;;;;;;9.03;5.70;;;17.10;71.60;;;;;;5082161;28;20460;-79
2023/07/01 03:12:19;;;;;;;13.90;6.37;;;17.10;71.60;;;;;;5085434;28;21036;-81
2023/07/01 03:14:46;;;;;;;9.63;5.90;;;17.00;71.70;;;;;;5085913;28;20793;-80
2023/07/01 03:17:14;;;;;;;8.90;5.93;;;16.90;71.90;;;;;;5067908;28;20466;-81
2023/07/01 03:19:43;;;;;;;10.00;5.10;;;17.00;72.10;;;;;;5088842;28;20538;-80
2023/07/01 03:22:11;;;;;;;16.70;5.70;;;17.00;71.90;;;;;;5071538;28;20731;-80
2023/07/01 03:24:39;;;;;;;16.40;6.00;;;17.00;71.70;;;;;;5073626;28;20453;-83
2023/07/01 03:27:09;;;;;;;13.60;5.57;;;16.90;71.70;;;;;;5065735;28;20474;-82
2023/07/01 03:29:37;;;;;;;13.10;5.10;;;16.90;71.70;;;;;;5079516;28;20451;-82
2023/07/01 03:32:06;;;;;;;8.40;4.90;;;16.80;71.50;;;;;;5069409;28;20469;-82
2023/07/01 03:34:34;;;;;;;7.97;4.50;;;16.80;71.50;;;;;;5081836;28;20449;-82
2023/07/01 03:37:02;;;;;;;9.60;5.53;;;16.70;71.60;;;;;;5081569;28;20446;-82
2023/07/01 03:39:30;;;;;;;12.53;6.00;;;16.70;71.70;;;;;;5082091;28;20893;-80
2023/07/01 03:41:58;;;;;;;10.43;5.83;;;16.70;71.70;;;;;;5066661;28;20465;-77
2023/07/01 03:44:42;;;;;;;10.10;5.20;;;16.70;71.90;;;;;;5088416;28;20453;-81
2023/07/01 03:47:13;;;;;;;15.33;5.40;;;16.70;72.00;;;;;;5086874;28;20499;-84
2023/07/01 03:49:41;;;;;;;7.93;5.07;;;16.70;71.90;;;;;;5063497;28;20455;-80
2023/07/01 03:52:09;;;;;;;9.07;5.60;;;16.70;71.80;;;;;;5084465;28;20475;-82
2023/07/01 03:54:37;;;;;;;12.80;5.80;;;16.70;71.80;;;;;;5069246;28;20452;-81
2023/07/01 03:57:06;;;;;;;9.77;5.40;;;16.70;71.80;;;;;;5083734;28;20455;-81
2023/07/01 03:59:33;;;;;;;11.67;5.43;;;16.70;71.90;;;;;;5064381;28;20525;-82
2023/07/01 04:02:18;;;;;;;11.17;6.07;;;16.70;71.90;;;;;;5082436;28;20481;-82
2023/07/01 04:04:46;;;;;;;9.83;5.20;;;16.80;71.90;;;;;;5082662;28;20510;-80
2023/07/01 04:07:15;;;;;;;12.63;6.20;;;16.80;71.90;;;;;;5084838;28;20476;-79
2023/07/01 04:09:43;;;;;;;12.50;5.50;;;16.90;72.00;;;;;;5085828;28;20470;-79
2023/07/01 04:12:12;;;;;;;11.50;4.93;;;16.90;72.00;;;;;;5080400;28;20877;-81
2023/07/01 04:14:39;;;;;;;9.27;4.83;;;16.90;71.90;;;;;;5069899;28;21194;-82
2023/07/01 04:17:07;;;;;;;9.93;5.30;;;17.00;71.90;;;;;;5083855;28;20455;-81
2023/07/01 04:19:37;;;;;;;10.10;5.50;;;16.90;71.80;;;;;;5089463;28;20951;-79
2023/07/01 04:22:05;;;;;;;11.13;5.50;;;17.00;71.80;;;;;;5082979;28;20454;-79
2023/07/01 04:24:33;;;;;;;11.27;5.40;;;17.00;71.80;;;;;;5076190;28;20462;-80
2023/07/01 04:27:02;;;;;;;14.30;5.60;;;17.10;71.80;;;;;;5078133;28;20478;-82
2023/07/01 04:29:29;;;;;;;9.07;5.70;;;17.10;71.90;;;;;;5079650;28;20444;-79
2023/07/01 04:31:58;;;;;;;12.97;6.13;;;17.20;71.90;;;;;;5080641;28;21048;-79
2023/07/01 04:34:25;;;;;;;14.53;6.67;;;17.20;72.00;;;;;;5065866;28;20469;-81
2023/07/01 04:36:55;;;;;;;10.53;6.30;;;17.30;72.10;;;;;;5084667;28;20823;-80
2023/07/01 04:39:24;;;;;;;12.30;6.80;;;17.40;72.10;;;;;;5084991;28;20476;-80
2023/07/01 04:41:52;;;;;;;10.33;6.23;;;17.60;72.10;;;;;;5081351;28;20953;-83
2023/07/01 04:44:24;;;;;;;15.10;6.80;;;17.70;71.90;;;;;;5074661;28;20464;-80
2023/07/01 04:46:52;;;;;;;10.33;6.97;;;17.70;71.90;;;;;;5062704;28;20464;-81
2023/07/01 04:49:20;;;;;;;10.93;7.17;;;17.80;71.80;;;;;;5065489;28;20459;-81
2023/07/01 04:51:48;;;;;;;10.33;6.03;;;17.90;72.00;;;;;;5085887;28;20892;-81
2023/07/01 04:54:19;;;;;;;14.17;6.23;;;18.00;72.10;;;;;;5081835;28;20544;-80
2023/07/01 04:56:47;;;;;;;9.97;6.90;;;18.10;72.20;;;;;;5084875;28;20460;-79
2023/07/01 04:59:15;;;;;;;14.13;7.17;;;18.20;72.20;;;;;;5087516;28;20953;-81
2023/07/01 05:01:43;;;;;;;12.80;6.70;;;18.30;72.30;;;;;;5070849;28;20526;-83
2023/07/01 05:04:11;;;;;;;11.60;6.63;;;18.40;72.20;;;;;;5069920;28;20453;-80
2023/07/01 05:06:39;;;;;;;14.00;8.43;;;18.50;72.20;;;;;;5089654;28;20474;-80
2023/07/01 05:09:08;;;;;;;10.30;6.60;;;18.60;72.20;;;;;;5081611;28;20496;-82
2023/07/01 05:11:37;;;;;;;11.57;7.23;;;18.70;72.20;;;;;;5065163;28;20444;-82
2023/07/01 05:14:05;;;;;;;10.90;6.93;;;18.80;72.20;;;;;;5082339;28;20534;-80
2023/07/01 05:16:33;;;;;;;16.10;7.17;;;18.90;72.30;;;;;;5086191;28;20523;-81
2023/07/01 05:19:02;;;;;;;12.70;7.87;;;19.00;72.30;;;;;;5083296;28;20509;-80
2023/07/01 05:21:30;;;;;;;9.40;6.70;;;19.10;72.30;;;;;;5088286;28;20468;-81
2023/07/01 05:23:57;;;;;;;12.07;7.17;;;19.20;72.40;;;;;;5064221;28;20456;-79
2023/07/01 05:26:26;;;;;;;12.27;7.77;;;19.30;72.40;;;;;;5087137;28;20456;-82
2023/07/01 05:28:56;;;;;;;12.47;7.60;;;19.50;72.50;;;;;;5083144;28;20911;-81
2023/07/01 05:31:24;;;;;;;16.77;7.97;;;19.60;72.60;;;;;;5083647;28;20476;-80
2023/07/01 05:33:52;;;;;;;13.20;8.20;;;19.80;72.60;;;;;;5080110;28;20474;-82
2023/07/01 05:36:20;;;;;;;16.27;8.10;;;20.00;72.70;;;;;;5064662;28;20457;-80
2023/07/01 05:38:48;;;;;;;13.90;8.33;;;20.20;72.90;;;;;;5080023;28;20453;-77
2023/07/01 05:41:17;;;;;;;12.80;7.20;;;20.40;73.10;;;;;;5085449;28;20484;-81
2023/07/01 05:43:45;;;;;;;14.63;7.97;;;20.70;73.30;;;;;;5085866;28;20475;-82
2023/07/01 05:46:18;;;;;;;12.07;7.50;;;21.00;72.40;;;;;;5085177;28;20460;-82
2023/07/01 05:48:46;;;;;;;13.20;8.40;;;21.20;71.80;;;;;;5066463;28;20993;-81
2023/07/01 05:51:14;;;;;;;13.03;7.70;;;21.30;71.40;;;;;;5063889;28;20503;-79
2023/07/01 05:53:45;;;;;;;12.17;6.90;;;21.30;71.10;;;;;;5088056;28;20793;-78
2023/07/01 05:56:14;;;;;;;13.60;8.00;;;21.30;70.80;;;;;;5067485;28;20785;-80
2023/07/01 05:58:42;;;;;;;13.33;7.43;;;21.30;71.00;;;;;;5071365;28;20452;-82
2023/07/01 06:04:42;;;;;;;13.10;7.10;;;21.30;70.50;;;;;;5066485;28;20456;-80
2023/07/01 06:07:10;;;;;;;11.00;7.20;;;21.20;70.40;;;;;;5088607;28;20541;-80
2023/07/01 06:09:38;;;;;;;11.37;7.20;;;21.10;70.50;;;;;;5089686;28;20472;-80
2023/07/01 06:12:07;;;;;;;14.27;5.93;;;21.10;70.50;;;;;;5085427;28;20507;-79
2023/07/01 06:14:36;;;;;;;12.13;6.20;;;21.00;70.60;;;;;;5088174;28;20461;-81
2023/07/01 06:17:04;;;;;;;10.17;5.90;;;20.90;70.60;;;;;;5079268;28;20475;-78
2023/07/01 06:19:32;;;;;;;8.70;5.30;;;20.90;70.80;;;;;;5067767;28;20821;-79
2023/07/01 06:22:01;;;;;;;10.10;5.97;;;20.80;70.70;;;;;;5064192;28;20456;-81
2023/07/01 06:24:29;;;;;;;9.20;5.97;;;20.80;70.70;;;;;;5084106;28;20806;-81
2023/07/01 06:26:57;;;;;;;11.07;6.33;;;20.80;70.70;;;;;;5084538;28;20455;-82
2023/07/01 06:29:25;;;;;;;10.53;6.63;;;20.80;70.70;;;;;;5073398;28;20477;-82
2023/07/01 06:31:53;;;;;;;8.43;5.63;;;20.80;70.90;;;;;;5067779;28;20534;-81
2023/07/01 06:34:21;;;;;;;12.33;6.60;;;20.80;71.20;;;;;;5064007;28;20470;-79
2023/07/01 06:36:49;;;;;;;9.23;5.03;;;20.90;71.30;;;;;;5088816;28;20452;-79
2023/07/01 06:39:18;;;;;;;9.83;5.60;;;21.10;71.20;;;;;;5087360;28;20808;-79
2023/07/01 06:41:46;;;;;;;8.53;5.17;;;21.20;71.00;;;;;;5081817;28;20456;-81
2023/07/01 06:44:14;;;;;;;11.30;4.90;;;21.30;70.80;;;;;;5086058;28;20450;-80
2023/07/01 06:46:42;;;;;;;7.97;4.60;;;21.30;70.50;;;;;;5067096;28;20943;-82
2023/07/01 06:49:10;;;;;;;8.03;4.20;;;21.40;70.30;;;;;;5083578;28;20830;-79
2023/07/01 06:51:38;;;;;;;7.70;3.90;;;21.40;70.00;;;;;;5066115;28;20500;-80
2023/07/01 06:54:06;;;;;;;6.60;3.43;;;21.50;69.80;;;;;;5079442;28;20947;-81
2023/07/01 06:56:35;;;;;;;8.30;3.40;;;21.50;69.70;;;;;;5082916;28;20480;-80
2023/07/01 06:59:03;;;;;;;8.00;3.40;;;21.60;69.40;;;;;;5082851;28;20464;-82
2023/07/01 07:01:32;;;;;;;10.50;3.67;;;21.70;69.00;;;;;;5070802;28;20475;-82
2023/07/01 07:04:00;;;;;;;6.50;3.10;;;21.70;68.90;;;;;;5065513;28;20963;-81
2023/07/01 07:06:28;;;;;;;7.80;3.33;;;21.70;68.40;;;;;;5085230;28;20943;-80
2023/07/01 07:08:56;;;;;;;9.33;3.40;;;21.80;68.20;;;;;;5083614;28;20870;-80
2023/07/01 07:11:25;;;;;;;10.70;2.90;;;21.70;67.70;;;;;;5072987;28;20967;-79
2023/07/01 07:13:55;;;;;;;8.70;3.27;;;21.70;67.30;;;;;;5083345;28;20452;-80
2023/07/01 07:16:23;;;;;;;6.30;3.03;;;21.70;67.30;;;;;;5087727;28;20457;-81
2023/07/01 07:18:52;;;;;;;7.40;3.67;;;21.70;67.10;;;;;;5081150;28;20518;-78
2023/07/01 07:21:20;;;;;;;9.37;3.60;;;21.60;66.80;;;;;;5088272;28;20456;-80
2023/07/01 07:23:48;;;;;;;7.80;3.63;;;21.70;66.80;;;;;;5072492;28;20461;-80
2023/07/01 07:26:16;;;;;;;6.70;3.03;;;21.70;66.90;;;;;;5083129;28;20468;-81
2023/07/01 07:28:44;;;;;;;8.37;3.10;;;21.70;66.80;;;;;;5084115;28;20847;-79
2023/07/01 07:31:13;;;;;;;5.93;3.17;;;21.70;66.80;;;;;;5085320;28;20476;-82
2023/07/01 07:33:41;;;;;;;6.00;2.30;;;21.80;66.60;;;;;;5081507;28;21207;-81
2023/07/01 07:36:09;;;;;;;8.10;3.67;;;21.80;66.40;;;;;;5078915;28;20445;-81
2023/07/01 07:38:37;;;;;;;6.00;2.80;;;21.80;66.20;;;;;;5081508;28;20469;-78
2023/07/01 07:41:05;;;;;;;5.73;2.60;;;21.90;66.00;;;;;;5081059;28;20460;-80
2023/07/01 07:43:33;;;;;;;9.40;2.70;;;21.90;65.80;;;;;;5076908;28;20691;-81
2023/07/01 07:46:01;;;;;;;6.73;2.83;;;21.90;65.40;;;;;;5072369;28;20461;-81
2023/07/01 07:48:30;;;;;;;5.90;2.50;;;21.90;65.00;;;;;;5082547;28;20827;-80
2023/07/01 07:50:58;;;;;;;6.50;2.23;;;22.00;64.50;;;;;;5087016;28;20452;-81
2023/07/01 07:53:26;;;;;;;6.80;2.30;;;22.00;64.50;;;;;;5079453;28;20987;-80
2023/07/01 07:55:54;;;;;;;7.00;2.10;;;22.00;64.30;;;;;;5080976;28;20532;-81
2023/07/01 07:58:22;;;;;;;8.70;2.77;;;22.00;64.40;;;;;;5085249;28;20971;-82
2023/07/01 08:00:54;;;;;;;8.20;2.60;;;22.10;64.20;;;;;;5085538;28;20504;-78
2023/07/01 08:03:22;;;;;;;8.73;2.93;;;22.10;64.00;;;;;;5083847;28;20449;-82
2023/07/01 08:05:51;;;;;;;4.80;2.07;;;22.10;63.70;;;;;;5080446;28;20757;-81
2023/07/01 08:08:19;;;;;;;6.27;2.40;;;22.10;63.50;;;;;;5088751;28;20453;-82
2023/07/01 08:10:47;;;;;;;8.20;2.73;;;22.20;63.30;;;;;;5085446;28;20495;-79
2023/07/01 08:13:16;;;;;;;7.73;2.40;;;22.20;63.10;;;;;;5070282;28;20452;-80
2023/07/01 08:15:44;;;;;;;5.33;2.10;;;22.20;63.10;;;;;;5088798;28;20499;-80
2023/07/01 08:18:12;;;;;;;22.17;2.60;;;22.30;62.90;;;;;;5073473;28;20468;-81
2023/07/01 08:20:41;;;;;;;7.10;2.40;;;22.30;62.70;;;;;;5087588;28;20444;-81
2023/07/01 08:23:10;;;;;;;7.37;2.60;;;22.30;62.20;;;;;;5059802;28;20461;-82
2023/07/01 08:25:40;;;;;;;9.50;2.80;;;22.30;62.20;;;;;;5086883;28;20449;-78
2023/07/01 08:28:08;;;;;;;5.20;2.30;;;22.30;62.00;;;;;;5085989;28;20450;-81
2023/07/01 08:30:36;;;;;;;7.33;2.33;;;22.30;61.70;;;;;;5084891;28;20978;-78
2023/07/01 08:33:05;;;;;;;6.30;2.40;;;22.30;61.80;;;;;;5086134;28;20447;-79
2023/07/01 08:35:33;;;;;;;6.60;2.33;;;22.30;61.90;;;;;;5071306;28;20544;-80
2023/07/01 08:38:01;;;;;;;9.40;2.07;;;22.30;61.90;;;;;;5072500;28;20811;-80
2023/07/01 08:40:31;;;;;;;5.40;2.00;;;22.30;61.70;;;;;;5087184;28;20456;-82
2023/07/01 08:43:02;;;;;;;10.97;2.90;;;22.30;61.80;;;;;;5082524;28;20461;-81
2023/07/01 08:45:32;;;;;;;7.70;2.63;;;22.30;61.90;;;;;;5086981;28;20461;-82
2023/07/01 08:48:01;;;;;;;6.30;2.60;;;22.40;61.90;;;;;;5080969;28;20551;-80
2023/07/01 08:50:37;;;;;;;7.00;2.50;;;22.40;61.80;;;;;;5089180;28;20471;-82
2023/07/01 08:53:07;;;;;;;7.00;2.57;;;22.40;61.70;;;;;;5065767;28;20453;-82
2023/07/01 08:55:39;;;;;;;9.00;2.73;;;22.50;61.60;;;;;;5088604;28;20977;-81
2023/07/01 08:58:09;;;;;;;7.50;2.73;;;22.50;61.80;;;;;;5087882;28;20448;-81
2023/07/01 09:00:37;;;;;;;7.97;2.60;;;22.60;61.80;;;;;;5070808;28;20800;-82
2023/07/01 09:03:05;;;;;;;11.57;2.70;;;22.60;61.80;;;;;;5087354;28;20816;-81
2023/07/01 09:05:33;;;;;;;7.07;2.00;;;22.60;61.40;;;;;;5089626;28;20457;-81
2023/07/01 09:08:01;;;;;;;6.57;2.40;;;22.70;61.10;;;;;;5088603;28;20456;-82
2023/07/01 09:10:29;;;;;;;11.93;2.50;;;22.70;60.60;;;;;;5090123;28;20492;-80
2023/07/01 09:13:11;;;;;;;7.07;2.90;;;22.70;60.60;;;;;;5088330;28;21151;-81
2023/07/01 09:15:47;;;;;;;8.23;2.40;;;22.70;60.30;;;;;;5084259;28;20559;-80
2023/07/01 09:18:24;;;;;;;9.50;3.00;;;22.70;60.20;;;;;;5082126;28;20457;-80
2023/07/01 09:20:53;;;;;;;7.70;2.20;;;22.70;60.20;;;;;;5084653;28;20459;-81
2023/07/01 09:23:29;;;;;;;8.27;2.63;;;22.70;60.20;;;;;;5078714;28;20453;-80
2023/07/01 09:26:17;;;;;;;5.80;2.27;;;22.70;60.00;;;;;;5088496;28;20452;-81
2023/07/01 09:28:49;;;;;;;6.17;2.50;;;22.80;59.60;;;;;;5092107;28;20449;-80
2023/07/01 09:31:18;;;;;;;5.30;2.23;;;22.80;59.60;;;;;;5084565;28;20547;-82
2023/07/01 09:34:02;;;;;;;7.90;2.23;;;22.90;59.40;;;;;;5074123;28;20446;-78
2023/07/01 09:36:32;;;;;;;7.43;2.60;;;22.90;58.90;;;;;;5086685;28;20440;-78
2023/07/01 09:39:01;;;;;;;7.10;2.30;;;22.90;59.00;;;;;;5073985;28;20451;-81
2023/07/01 09:41:30;;;;;;;6.03;2.47;;;22.90;59.10;;;;;;5073726;28;20512;-82
2023/07/01 09:44:18;;;;;;;9.80;2.60;;;22.90;59.10;;;;;;5082606;28;21244;-82
2023/07/01 09:46:49;;;;;;;7.00;2.60;;;22.90;58.70;;;;;;5079308;28;20461;-79
2023/07/01 09:49:18;;;;;;;8.37;2.10;;;22.90;58.80;;;;;;5083062;28;20444;-80
2023/07/01 09:51:49;;;;;;;5.97;2.37;;;23.00;58.60;;;;;;5088970;28;20448;-79
2023/07/01 09:54:25;;;;;;;6.03;2.00;;;23.00;58.60;;;;;;5069912;28;20862;-82
2023/07/01 09:56:55;;;;;;;6.60;2.20;;;23.00;58.30;;;;;;5089774;28;20483;-80
2023/07/01 09:59:26;;;;;;;8.83;2.77;;;23.00;58.20;;;;;;5077287;28;20468;-82
2023/07/01 10:01:56;;;;;;;9.53;2.70;;;23.10;57.90;;;;;;5085602;28;20466;-81
2023/07/01 10:04:28;;;;;;;7.77;2.47;;;23.20;57.70;;;;;;5084681;28;20494;-80
2023/07/01 10:06:57;;;;;;;6.00;2.63;;;23.20;57.90;;;;;;5089668;28;20444;-81
2023/07/01 10:09:27;;;;;;;8.23;2.50;;;23.30;57.70;;;;;;5090501;28;20543;-82
2023/07/01 10:11:59;;;;;;;12.27;2.90;;;23.30;57.70;;;;;;5088196;28;20476;-79
2023/07/01 10:14:32;;;;;;;9.50;3.07;;;23.40;57.40;;;;;;5091112;28;20447;-81
2023/07/01 10:17:00;;;;;;;10.77;3.43;;;23.40;57.30;;;;;;5073412;28;20456;-80
2023/07/01 10:19:30;;;;;;;6.40;2.70;;;23.40;57.30;;;;;;5085653;28;20452;-81
2023/07/01 10:22:33;;;;;;;5.37;2.03;;;23.40;57.20;;;;;;5072030;28;20448;-81
2023/07/01 10:25:04;;;;;;;6.23;2.40;;;23.30;57.30;;;;;;5081642;28;21325;-82
2023/07/01 10:28:14;;;;;;;9.00;2.57;;;23.30;57.40;;;;;;5084335;28;20969;-82
2023/07/01 10:31:11;;;;;;;6.60;2.57;;;23.40;57.50;;;;;;5085866;28;20480;-79
2023/07/01 10:33:56;;;;;;;6.33;2.57;;;23.40;57.60;;;;;;5086674;28;20464;-78
2023/07/01 10:36:24;;;;;;;10.73;2.57;;;23.40;57.80;;;;;;5083964;28;20474;-80
2023/07/01 10:38:53;;;;;;;8.63;2.80;;;23.40;57.90;;;;;;5083723;28;21099;-79
2023/07/01 10:41:54;;;;;;;7.10;2.53;;;23.40;57.90;;;;;;5087397;28;20804;-81
2023/07/01 10:44:25;;;;;;;7.93;2.80;;;23.40;57.80;;;;;;5020165;28;20457;-81
2023/07/01 10:47:17;;;;;;;10.63;2.77;;;23.30;58.00;;;;;;5073048;28;20464;-79
2023/07/01 10:50:02;;;;;;;7.00;2.47;;;23.30;58.20;;;;;;5087806;28;20456;-78
2023/07/01 10:52:30;;;;;;;6.93;2.50;;;23.40;58.40;;;;;;5084597;28;20477;-80
2023/07/01 10:55:00;;;;;;;7.80;2.70;;;23.40;58.40;;;;;;5084213;28;20441;-78
2023/07/01 10:57:28;;;;;;;7.00;2.67;;;23.40;58.40;;;;;;5082160;28;20453;-82
2023/07/01 11:00:29;;;;;;;7.53;2.70;;;23.40;58.60;;;;;;5086197;28;20445;-82
2023/07/01 11:02:59;;;;;;;8.23;2.37;;;23.50;58.50;;;;;;5087652;28;20452;-81
2023/07/01 11:05:29;;;;;;;9.20;2.50;;;23.50;58.60;;;;;;5088760;28;20452;-80
2023/07/01 11:08:07;;;;;;;5.40;2.80;;;23.50;58.60;;;;;;5086624;28;20456;-79
2023/07/01 11:10:36;;;;;;;7.20;2.43;;;23.50;58.60;;;;;;5088969;28;20504;-81
2023/07/01 11:13:05;;;;;;;6.23;2.50;;;23.50;58.70;;;;;;5087778;28;20491;-80
2023/07/01 11:15:33;;;;;;;8.23;2.90;;;23.50;58.80;;;;;;5088059;28;20451;-77
2023/07/01 11:18:02;;;;;;;6.10;2.40;;;23.50;58.90;;;;;;5077488;28;20449;-79
2023/07/01 11:20:49;;;;;;;7.97;2.53;;;23.50;59.00;;;;;;5083865;28;20453;-80
2023/07/01 11:23:19;;;;;;;6.47;2.93;;;23.50;59.10;;;;;;5069803;28;21034;-80
2023/07/01 11:25:47;;;;;;;7.10;2.60;;;23.50;59.10;;;;;;5069201;28;20453;-79
2023/07/01 11:28:31;;;;;;;9.37;2.97;;;23.50;59.10;;;;;;5085614;28;20445;-82
2023/07/01 11:31:10;;;;;;;11.33;3.17;;;23.40;59.00;;;;;;5083170;28;20495;-82
2023/07/01 11:33:44;;;;;;;7.43;3.00;;;23.40;59.10;;;;;;5085060;28;20445;-80
2023/07/01 11:36:14;;;;;;;7.67;2.83;;;23.40;59.20;;;;;;5084572;28;20449;-81
2023/07/01 11:38:44;;;;;;;11.37;2.70;;;23.30;59.20;;;;;;5084384;28;20460;-78
2023/07/01 11:41:17;;;;;;;6.60;3.27;;;23.30;59.30;;;;;;5077475;28;20450;-79
2023/07/01 11:43:46;;;;;;;7.23;2.77;;;23.20;59.40;;;;;;5086427;28;20950;-82
2023/07/01 11:46:14;;;;;;;7.27;2.90;;;23.20;59.60;;;;;;5089107;28;20459;-80
2023/07/01 11:48:47;;;;;;;6.27;2.80;;;23.20;59.70;;;;;;5071634;28;20546;-79
2023/07/01 11:51:37;;;;;;;8.80;3.47;;;23.20;59.70;;;;;;5085851;28;20469;-82
2023/07/01 11:54:05;;;;;;;7.07;2.67;;;23.20;59.80;;;;;;5086434;28;20459;-79
2023/07/01 11:56:33;;;;;;;6.07;2.60;;;23.10;59.80;;;;;;5072141;28;20453;-80
2023/07/01 11:59:00;;;;;;;9.83;3.00;;;23.10;59.90;;;;;;5084836;28;20452;-83
2023/07/01 12:01:29;;;;;;;5.50;2.30;;;23.10;60.00;;;;;;5086122;28;20536;-82
2023/07/01 12:03:58;;;;;;;6.53;2.73;;;23.10;60.10;;;;;;5083307;28;20453;-79
2023/07/01 12:06:27;;;;;;;9.30;2.47;;;23.10;60.40;;;;;;5088634;28;20484;-79
2023/07/01 12:08:56;;;;;;;6.83;2.80;;;23.10;60.40;;;;;;5074650;28;20465;-80
2023/07/01 12:11:46;;;;;;;10.60;2.80;;;23.10;60.50;;;;;;5083694;28;20465;-79
2023/07/01 12:14:18;;;;;;;7.03;3.00;;;23.10;60.60;;;;;;5080458;28;20477;-78
2023/07/01 12:16:49;;;;;;;8.60;3.00;;;23.10;60.60;;;;;;5084378;28;20456;-81
2023/07/01 12:19:20;;;;;;;6.07;2.40;;;23.10;60.70;;;;;;5087254;28;20555;-81
2023/07/01 12:21:48;;;;;;;6.33;2.57;;;23.10;60.80;;;;;;5068659;28;20458;-82
2023/07/01 12:24:18;;;;;;;7.73;2.17;;;23.10;60.90;;;;;;5082709;28;20460;-79
2023/07/01 12:26:46;;;;;;;6.53;2.67;;;23.10;61.00;;;;;;5066342;28;20449;-79
2023/07/01 12:29:14;;;;;;;6.70;2.40;;;23.10;61.00;;;;;;5073185;28;20856;-79
2023/07/01 12:31:44;;;;;;;6.40;2.73;;;23.20;61.00;;;;;;5084746;28;21278;-79
2023/07/01 12:34:14;;;;;;;9.13;2.83;;;23.10;61.10;;;;;;5080060;28;20448;-81
2023/07/01 12:36:45;;;;;;;8.67;2.30;;;23.10;61.10;;;;;;5084105;28;20465;-81
2023/07/01 12:39:17;;;;;;;8.10;2.50;;;23.20;61.20;;;;;;5083416;28;20460;-78
2023/07/01 12:41:46;;;;;;;5.93;1.93;;;23.10;61.30;;;;;;5083288;28;20948;-79
2023/07/01 12:44:15;;;;;;;7.63;2.77;;;23.20;61.30;;;;;;5066519;28;20463;-80
2023/07/01 12:46:44;;;;;;;7.57;2.73;;;23.20;61.40;;;;;;5085675;28;20469;-78
2023/07/01 12:49:12;;;;;;;5.90;2.00;;;23.20;61.50;;;;;;5084509;28;20452;-81
2023/07/01 12:51:42;;;;;;;6.87;1.97;;;23.20;61.60;;;;;;5068205;28;20473;-80
2023/07/01 12:54:12;;;;;;;5.80;2.00;;;23.20;61.70;;;;;;5072503;28;20504;-80
2023/07/01 12:56:43;;;;;;;6.20;2.10;;;23.30;61.60;;;;;;5068654;28;20460;-80
2023/07/01 12:59:11;;;;;;;7.30;2.13;;;23.30;61.70;;;;;;5092082;28;20456;-79
2023/07/01 13:01:39;;;;;;;6.73;1.97;;;23.30;61.80;;;;;;5092024;28;20824;-79
2023/07/01 13:04:08;;;;;;;5.30;2.20;;;23.30;62.00;;;;;;5083882;28;20446;-79